sensor_id;sensor_type;location;lat;lon;timestamp;P1;durP1;ratioP1;P2;durP2;ratioP2
67065;SDS011;53978;43.846;25.952;2022-07-23T00:00:52;4.10;;;2.72;;
67065;SDS011;53978;43.846;25.952;2022-07-23T00:03:18;5.22;;;3.22;;
67065;SDS011;53978;43.846;25.952;2022-07-23T00:05:43;6.22;;;2.60;;
67065;SDS011;53978;43.846;25.952;2022-07-23T00:08:09;5.82;;;2.50;;
67065;SDS011;53978;43.846;25.952;2022-07-23T00:10:35;4.53;;;2.75;;
67065;SDS011;53978;43.846;25.952;2022-07-23T00:13:00;5.85;;;3.00;;
67065;SDS011;53978;43.846;25.952;2022-07-23T00:15:26;5.05;;;2.50;;
67065;SDS011;53978;43.846;25.952;2022-07-23T00:17:51;7.45;;;2.83;;
67065;SDS011;53978;43.846;25.952;2022-07-23T00:20:17;4.20;;;2.70;;
67065;SDS011;53978;43.846;25.952;2022-07-23T00:22:49;8.95;;;2.90;;
67065;SDS011;53978;43.846;25.952;2022-07-23T00:25:15;5.50;;;2.58;;
67065;SDS011;53978;43.846;25.952;2022-07-23T00:27:41;4.72;;;3.00;;
67065;SDS011;53978;43.846;25.952;2022-07-23T00:30:07;6.25;;;3.03;;
67065;SDS011;53978;43.846;25.952;2022-07-23T00:32:44;7.78;;;2.90;;
67065;SDS011;53978;43.846;25.952;2022-07-23T00:35:18;4.43;;;3.10;;
67065;SDS011;53978;43.846;25.952;2022-07-23T00:37:45;6.68;;;2.90;;
67065;SDS011;53978;43.846;25.952;2022-07-23T00:40:11;4.65;;;2.80;;
67065;SDS011;53978;43.846;25.952;2022-07-23T00:42:36;8.30;;;2.63;;
67065;SDS011;53978;43.846;25.952;2022-07-23T00:45:02;12.57;;;3.50;;
67065;SDS011;53978;43.846;25.952;2022-07-23T00:47:28;10.30;;;3.17;;
67065;SDS011;53978;43.846;25.952;2022-07-23T00:49:53;8.75;;;3.10;;
67065;SDS011;53978;43.846;25.952;2022-07-23T00:52:19;8.93;;;2.90;;
67065;SDS011;53978;43.846;25.952;2022-07-23T00:54:44;10.95;;;3.90;;
67065;SDS011;53978;43.846;25.952;2022-07-23T00:57:10;11.32;;;3.10;;
67065;SDS011;53978;43.846;25.952;2022-07-23T00:59:35;17.10;;;3.40;;
67065;SDS011;53978;43.846;25.952;2022-07-23T01:02:00;11.82;;;2.85;;
67065;SDS011;53978;43.846;25.952;2022-07-23T01:04:26;11.32;;;3.03;;
67065;SDS011;53978;43.846;25.952;2022-07-23T01:06:51;10.23;;;2.95;;
67065;SDS011;53978;43.846;25.952;2022-07-23T01:09:17;8.15;;;2.78;;
67065;SDS011;53978;43.846;25.952;2022-07-23T01:11:43;6.22;;;2.63;;
67065;SDS011;53978;43.846;25.952;2022-07-23T01:14:12;2.40;;;2.20;;
67065;SDS011;53978;43.846;25.952;2022-07-23T01:16:39;8.57;;;2.70;;
67065;SDS011;53978;43.846;25.952;2022-07-23T01:19:05;4.38;;;2.38;;
67065;SDS011;53978;43.846;25.952;2022-07-23T01:21:32;6.03;;;2.70;;
67065;SDS011;53978;43.846;25.952;2022-07-23T01:24:03;7.55;;;2.60;;
67065;SDS011;53978;43.846;25.952;2022-07-23T01:26:29;3.17;;;1.98;;
67065;SDS011;53978;43.846;25.952;2022-07-23T01:28:54;4.40;;;2.10;;
67065;SDS011;53978;43.846;25.952;2022-07-23T01:31:20;5.28;;;1.90;;
67065;SDS011;53978;43.846;25.952;2022-07-23T01:33:45;9.50;;;2.38;;
67065;SDS011;53978;43.846;25.952;2022-07-23T01:36:11;6.57;;;2.22;;
67065;SDS011;53978;43.846;25.952;2022-07-23T01:38:36;5.43;;;2.20;;
67065;SDS011;53978;43.846;25.952;2022-07-23T01:41:02;4.25;;;2.10;;
67065;SDS011;53978;43.846;25.952;2022-07-23T01:43:27;5.97;;;2.15;;
67065;SDS011;53978;43.846;25.952;2022-07-23T01:45:53;5.65;;;2.35;;
67065;SDS011;53978;43.846;25.952;2022-07-23T01:48:18;5.05;;;2.33;;
67065;SDS011;53978;43.846;25.952;2022-07-23T01:50:45;7.10;;;2.58;;
67065;SDS011;53978;43.846;25.952;2022-07-23T01:53:11;13.05;;;2.72;;
67065;SDS011;53978;43.846;25.952;2022-07-23T01:55:37;9.60;;;2.65;;
67065;SDS011;53978;43.846;25.952;2022-07-23T01:58:02;7.00;;;2.47;;
67065;SDS011;53978;43.846;25.952;2022-07-23T02:00:28;3.97;;;2.50;;
67065;SDS011;53978;43.846;25.952;2022-07-23T02:02:53;5.57;;;2.28;;
67065;SDS011;53978;43.846;25.952;2022-07-23T02:05:19;5.72;;;2.30;;
67065;SDS011;53978;43.846;25.952;2022-07-23T02:07:44;2.70;;;2.13;;
67065;SDS011;53978;43.846;25.952;2022-07-23T02:10:10;6.22;;;2.10;;
67065;SDS011;53978;43.846;25.952;2022-07-23T02:12:35;4.20;;;2.58;;
67065;SDS011;53978;43.846;25.952;2022-07-23T02:15:00;2.95;;;2.20;;
67065;SDS011;53978;43.846;25.952;2022-07-23T02:17:26;7.68;;;3.60;;
67065;SDS011;53978;43.846;25.952;2022-07-23T02:19:51;17.90;;;5.88;;
67065;SDS011;53978;43.846;25.952;2022-07-23T02:22:17;16.52;;;5.68;;
67065;SDS011;53978;43.846;25.952;2022-07-23T02:24:42;10.82;;;4.78;;
67065;SDS011;53978;43.846;25.952;2022-07-23T02:27:07;9.73;;;3.63;;
67065;SDS011;53978;43.846;25.952;2022-07-23T02:29:33;9.68;;;3.45;;
67065;SDS011;53978;43.846;25.952;2022-07-23T02:31:58;3.67;;;2.58;;
67065;SDS011;53978;43.846;25.952;2022-07-23T02:34:24;5.25;;;2.60;;
67065;SDS011;53978;43.846;25.952;2022-07-23T02:36:49;8.90;;;2.53;;
67065;SDS011;53978;43.846;25.952;2022-07-23T02:39:14;8.48;;;2.85;;
67065;SDS011;53978;43.846;25.952;2022-07-23T02:41:40;4.97;;;2.63;;
67065;SDS011;53978;43.846;25.952;2022-07-23T02:44:05;3.63;;;2.40;;
67065;SDS011;53978;43.846;25.952;2022-07-23T02:46:31;7.63;;;2.13;;
67065;SDS011;53978;43.846;25.952;2022-07-23T02:48:56;2.83;;;2.10;;
67065;SDS011;53978;43.846;25.952;2022-07-23T02:51:21;4.80;;;2.40;;
67065;SDS011;53978;43.846;25.952;2022-07-23T02:53:47;4.97;;;2.17;;
67065;SDS011;53978;43.846;25.952;2022-07-23T02:56:12;8.90;;;2.00;;
67065;SDS011;53978;43.846;25.952;2022-07-23T02:58:38;6.20;;;2.45;;
67065;SDS011;53978;43.846;25.952;2022-07-23T03:01:03;4.13;;;2.28;;
67065;SDS011;53978;43.846;25.952;2022-07-23T03:03:29;3.92;;;2.15;;
67065;SDS011;53978;43.846;25.952;2022-07-23T03:05:54;20.25;;;4.80;;
67065;SDS011;53978;43.846;25.952;2022-07-23T03:08:20;28.05;;;4.50;;
67065;SDS011;53978;43.846;25.952;2022-07-23T03:10:45;8.05;;;2.60;;
67065;SDS011;53978;43.846;25.952;2022-07-23T03:13:11;10.77;;;2.53;;
67065;SDS011;53978;43.846;25.952;2022-07-23T03:15:36;6.32;;;2.00;;
67065;SDS011;53978;43.846;25.952;2022-07-23T03:18:02;4.40;;;2.30;;
67065;SDS011;53978;43.846;25.952;2022-07-23T03:20:27;9.05;;;2.58;;
67065;SDS011;53978;43.846;25.952;2022-07-23T03:22:52;6.90;;;2.42;;
67065;SDS011;53978;43.846;25.952;2022-07-23T03:25:18;8.07;;;2.30;;
67065;SDS011;53978;43.846;25.952;2022-07-23T03:27:43;5.90;;;2.17;;
67065;SDS011;53978;43.846;25.952;2022-07-23T03:30:10;5.93;;;2.20;;
67065;SDS011;53978;43.846;25.952;2022-07-23T03:32:36;7.15;;;2.58;;
67065;SDS011;53978;43.846;25.952;2022-07-23T03:35:02;3.63;;;2.20;;
67065;SDS011;53978;43.846;25.952;2022-07-23T03:37:27;5.28;;;1.95;;
67065;SDS011;53978;43.846;25.952;2022-07-23T03:39:53;6.93;;;1.98;;
67065;SDS011;53978;43.846;25.952;2022-07-23T03:42:18;4.47;;;2.10;;
67065;SDS011;53978;43.846;25.952;2022-07-23T03:44:44;6.20;;;2.05;;
67065;SDS011;53978;43.846;25.952;2022-07-23T03:47:09;7.43;;;2.08;;
67065;SDS011;53978;43.846;25.952;2022-07-23T03:49:35;14.05;;;5.15;;
67065;SDS011;53978;43.846;25.952;2022-07-23T03:52:00;18.58;;;6.43;;
67065;SDS011;53978;43.846;25.952;2022-07-23T03:54:26;26.85;;;8.25;;
67065;SDS011;53978;43.846;25.952;2022-07-23T03:56:51;23.15;;;7.47;;
67065;SDS011;53978;43.846;25.952;2022-07-23T03:59:16;20.95;;;6.95;;
67065;SDS011;53978;43.846;25.952;2022-07-23T04:01:42;24.17;;;6.72;;
67065;SDS011;53978;43.846;25.952;2022-07-23T04:04:07;27.15;;;8.95;;
67065;SDS011;53978;43.846;25.952;2022-07-23T04:06:33;26.00;;;8.50;;
67065;SDS011;53978;43.846;25.952;2022-07-23T04:08:59;20.50;;;7.78;;
67065;SDS011;53978;43.846;25.952;2022-07-23T04:11:25;21.25;;;7.40;;
67065;SDS011;53978;43.846;25.952;2022-07-23T04:13:51;18.27;;;5.03;;
67065;SDS011;53978;43.846;25.952;2022-07-23T04:16:16;15.80;;;4.57;;
67065;SDS011;53978;43.846;25.952;2022-07-23T04:18:42;9.60;;;3.40;;
67065;SDS011;53978;43.846;25.952;2022-07-23T04:21:07;12.38;;;3.25;;
67065;SDS011;53978;43.846;25.952;2022-07-23T04:23:32;7.55;;;3.60;;
67065;SDS011;53978;43.846;25.952;2022-07-23T04:25:58;9.43;;;4.53;;
67065;SDS011;53978;43.846;25.952;2022-07-23T04:28:23;17.88;;;4.63;;
67065;SDS011;53978;43.846;25.952;2022-07-23T04:30:49;12.52;;;5.05;;
67065;SDS011;53978;43.846;25.952;2022-07-23T04:33:14;13.15;;;4.10;;
67065;SDS011;53978;43.846;25.952;2022-07-23T04:35:39;8.82;;;4.13;;
67065;SDS011;53978;43.846;25.952;2022-07-23T04:38:05;13.48;;;4.07;;
67065;SDS011;53978;43.846;25.952;2022-07-23T04:40:30;9.20;;;4.35;;
67065;SDS011;53978;43.846;25.952;2022-07-23T04:42:56;11.73;;;4.57;;
67065;SDS011;53978;43.846;25.952;2022-07-23T04:45:21;7.53;;;3.17;;
67065;SDS011;53978;43.846;25.952;2022-07-23T04:47:48;6.95;;;2.95;;
67065;SDS011;53978;43.846;25.952;2022-07-23T04:50:15;8.57;;;2.45;;
67065;SDS011;53978;43.846;25.952;2022-07-23T04:52:44;5.60;;;2.15;;
67065;SDS011;53978;43.846;25.952;2022-07-23T04:55:10;3.67;;;2.20;;
67065;SDS011;53978;43.846;25.952;2022-07-23T04:57:35;3.28;;;2.30;;
67065;SDS011;53978;43.846;25.952;2022-07-23T05:00:01;4.05;;;2.22;;
67065;SDS011;53978;43.846;25.952;2022-07-23T05:02:28;5.03;;;2.20;;
67065;SDS011;53978;43.846;25.952;2022-07-23T05:04:53;4.45;;;2.20;;
67065;SDS011;53978;43.846;25.952;2022-07-23T05:07:19;9.82;;;2.15;;
67065;SDS011;53978;43.846;25.952;2022-07-23T05:09:44;3.50;;;2.40;;
67065;SDS011;53978;43.846;25.952;2022-07-23T05:12:10;5.43;;;2.47;;
67065;SDS011;53978;43.846;25.952;2022-07-23T05:14:35;9.07;;;2.45;;
67065;SDS011;53978;43.846;25.952;2022-07-23T05:17:01;8.70;;;2.00;;
67065;SDS011;53978;43.846;25.952;2022-07-23T05:19:26;6.72;;;2.47;;
67065;SDS011;53978;43.846;25.952;2022-07-23T05:21:51;5.68;;;2.50;;
67065;SDS011;53978;43.846;25.952;2022-07-23T05:24:17;2.72;;;1.98;;
67065;SDS011;53978;43.846;25.952;2022-07-23T05:26:42;7.13;;;2.50;;
67065;SDS011;53978;43.846;25.952;2022-07-23T05:29:08;5.57;;;2.88;;
67065;SDS011;53978;43.846;25.952;2022-07-23T05:31:33;6.45;;;3.05;;
67065;SDS011;53978;43.846;25.952;2022-07-23T05:33:59;5.13;;;2.83;;
67065;SDS011;53978;43.846;25.952;2022-07-23T05:36:24;9.50;;;3.03;;
67065;SDS011;53978;43.846;25.952;2022-07-23T05:38:49;6.68;;;3.10;;
67065;SDS011;53978;43.846;25.952;2022-07-23T05:41:15;6.75;;;2.60;;
67065;SDS011;53978;43.846;25.952;2022-07-23T05:43:40;7.75;;;2.35;;
67065;SDS011;53978;43.846;25.952;2022-07-23T05:46:06;4.82;;;2.10;;
67065;SDS011;53978;43.846;25.952;2022-07-23T05:48:31;4.60;;;2.20;;
67065;SDS011;53978;43.846;25.952;2022-07-23T05:50:56;6.18;;;2.33;;
67065;SDS011;53978;43.846;25.952;2022-07-23T05:53:22;4.80;;;2.20;;
67065;SDS011;53978;43.846;25.952;2022-07-23T05:55:48;4.00;;;2.08;;
67065;SDS011;53978;43.846;25.952;2022-07-23T05:58:13;3.42;;;2.15;;
67065;SDS011;53978;43.846;25.952;2022-07-23T06:00:39;5.60;;;2.45;;
67065;SDS011;53978;43.846;25.952;2022-07-23T06:03:04;6.32;;;2.40;;
67065;SDS011;53978;43.846;25.952;2022-07-23T06:05:30;9.38;;;2.45;;
67065;SDS011;53978;43.846;25.952;2022-07-23T06:07:55;3.53;;;2.40;;
67065;SDS011;53978;43.846;25.952;2022-07-23T06:10:21;10.50;;;2.75;;
67065;SDS011;53978;43.846;25.952;2022-07-23T06:12:46;3.80;;;2.38;;
67065;SDS011;53978;43.846;25.952;2022-07-23T06:15:12;4.78;;;2.45;;
67065;SDS011;53978;43.846;25.952;2022-07-23T06:17:38;5.03;;;2.33;;
67065;SDS011;53978;43.846;25.952;2022-07-23T06:20:07;6.97;;;2.47;;
67065;SDS011;53978;43.846;25.952;2022-07-23T06:22:33;7.85;;;2.35;;
67065;SDS011;53978;43.846;25.952;2022-07-23T06:24:59;7.03;;;2.42;;
67065;SDS011;53978;43.846;25.952;2022-07-23T06:27:24;6.97;;;2.88;;
67065;SDS011;53978;43.846;25.952;2022-07-23T06:29:50;8.90;;;2.95;;
67065;SDS011;53978;43.846;25.952;2022-07-23T06:32:15;5.10;;;2.95;;
67065;SDS011;53978;43.846;25.952;2022-07-23T06:34:40;5.72;;;3.00;;
67065;SDS011;53978;43.846;25.952;2022-07-23T06:37:06;6.22;;;3.05;;
67065;SDS011;53978;43.846;25.952;2022-07-23T06:39:31;7.35;;;2.88;;
67065;SDS011;53978;43.846;25.952;2022-07-23T06:41:57;11.15;;;3.20;;
67065;SDS011;53978;43.846;25.952;2022-07-23T06:44:23;8.40;;;3.10;;
67065;SDS011;53978;43.846;25.952;2022-07-23T06:46:51;6.80;;;2.83;;
67065;SDS011;53978;43.846;25.952;2022-07-23T06:49:19;5.90;;;2.97;;
67065;SDS011;53978;43.846;25.952;2022-07-23T06:51:44;4.63;;;2.65;;
67065;SDS011;53978;43.846;25.952;2022-07-23T06:54:10;4.85;;;3.00;;
67065;SDS011;53978;43.846;25.952;2022-07-23T06:56:36;6.28;;;3.55;;
67065;SDS011;53978;43.846;25.952;2022-07-23T06:59:01;4.78;;;3.40;;
67065;SDS011;53978;43.846;25.952;2022-07-23T07:01:27;9.20;;;3.80;;
67065;SDS011;53978;43.846;25.952;2022-07-23T07:03:52;5.63;;;3.25;;
67065;SDS011;53978;43.846;25.952;2022-07-23T07:06:18;7.82;;;3.55;;
67065;SDS011;53978;43.846;25.952;2022-07-23T07:08:44;6.63;;;3.53;;
67065;SDS011;53978;43.846;25.952;2022-07-23T07:11:09;8.68;;;3.33;;
67065;SDS011;53978;43.846;25.952;2022-07-23T07:13:35;4.70;;;3.53;;
67065;SDS011;53978;43.846;25.952;2022-07-23T07:16:01;5.50;;;3.40;;
67065;SDS011;53978;43.846;25.952;2022-07-23T07:18:26;7.05;;;3.20;;
67065;SDS011;53978;43.846;25.952;2022-07-23T07:20:52;5.28;;;3.10;;
67065;SDS011;53978;43.846;25.952;2022-07-23T07:23:18;4.88;;;3.22;;
67065;SDS011;53978;43.846;25.952;2022-07-23T07:25:45;5.80;;;2.78;;
67065;SDS011;53978;43.846;25.952;2022-07-23T07:28:11;9.55;;;3.00;;
67065;SDS011;53978;43.846;25.952;2022-07-23T07:30:36;5.65;;;3.20;;
67065;SDS011;53978;43.846;25.952;2022-07-23T07:33:01;5.57;;;3.50;;
67065;SDS011;53978;43.846;25.952;2022-07-23T07:35:27;7.88;;;3.45;;
67065;SDS011;53978;43.846;25.952;2022-07-23T07:37:53;11.23;;;3.65;;
67065;SDS011;53978;43.846;25.952;2022-07-23T07:40:25;7.93;;;3.30;;
67065;SDS011;53978;43.846;25.952;2022-07-23T07:42:53;6.28;;;3.15;;
67065;SDS011;53978;43.846;25.952;2022-07-23T07:45:21;4.80;;;2.90;;
67065;SDS011;53978;43.846;25.952;2022-07-23T07:47:48;4.50;;;3.50;;
67065;SDS011;53978;43.846;25.952;2022-07-23T07:50:13;5.20;;;3.30;;
67065;SDS011;53978;43.846;25.952;2022-07-23T07:53:00;7.85;;;3.30;;
67065;SDS011;53978;43.846;25.952;2022-07-23T07:55:35;15.73;;;3.70;;
67065;SDS011;53978;43.846;25.952;2022-07-23T07:58:00;5.65;;;3.83;;
67065;SDS011;53978;43.846;25.952;2022-07-23T08:00:26;8.32;;;3.88;;
67065;SDS011;53978;43.846;25.952;2022-07-23T08:03:02;9.27;;;3.95;;
67065;SDS011;53978;43.846;25.952;2022-07-23T08:05:28;13.90;;;4.20;;
67065;SDS011;53978;43.846;25.952;2022-07-23T08:08:12;20.33;;;5.13;;
67065;SDS011;53978;43.846;25.952;2022-07-23T08:10:39;15.10;;;3.97;;
67065;SDS011;53978;43.846;25.952;2022-07-23T08:13:05;5.82;;;3.38;;
67065;SDS011;53978;43.846;25.952;2022-07-23T08:15:31;13.52;;;3.92;;
67065;SDS011;53978;43.846;25.952;2022-07-23T08:17:57;8.82;;;3.13;;
67065;SDS011;53978;43.846;25.952;2022-07-23T08:20:23;9.68;;;3.28;;
67065;SDS011;53978;43.846;25.952;2022-07-23T08:22:53;12.65;;;3.75;;
67065;SDS011;53978;43.846;25.952;2022-07-23T08:25:26;15.20;;;4.95;;
67065;SDS011;53978;43.846;25.952;2022-07-23T08:27:59;11.15;;;4.50;;
67065;SDS011;53978;43.846;25.952;2022-07-23T08:30:26;6.38;;;3.70;;
67065;SDS011;53978;43.846;25.952;2022-07-23T08:32:56;12.70;;;4.20;;
67065;SDS011;53978;43.846;25.952;2022-07-23T08:35:33;17.63;;;3.47;;
67065;SDS011;53978;43.846;25.952;2022-07-23T08:38:00;6.72;;;3.35;;
67065;SDS011;53978;43.846;25.952;2022-07-23T08:40:28;15.98;;;3.67;;
67065;SDS011;53978;43.846;25.952;2022-07-23T08:42:58;10.23;;;3.33;;
67065;SDS011;53978;43.846;25.952;2022-07-23T08:45:24;11.07;;;3.33;;
67065;SDS011;53978;43.846;25.952;2022-07-23T08:47:53;11.15;;;3.42;;
67065;SDS011;53978;43.846;25.952;2022-07-23T08:50:28;14.10;;;4.45;;
67065;SDS011;53978;43.846;25.952;2022-07-23T08:52:54;12.73;;;4.45;;
67065;SDS011;53978;43.846;25.952;2022-07-23T08:55:21;16.30;;;5.55;;
67065;SDS011;53978;43.846;25.952;2022-07-23T08:57:48;12.48;;;3.85;;
67065;SDS011;53978;43.846;25.952;2022-07-23T09:00:14;12.32;;;3.60;;
67065;SDS011;53978;43.846;25.952;2022-07-23T09:02:41;4.28;;;2.67;;
67065;SDS011;53978;43.846;25.952;2022-07-23T09:05:07;8.50;;;2.65;;
67065;SDS011;53978;43.846;25.952;2022-07-23T09:07:37;8.40;;;2.40;;
67065;SDS011;53978;43.846;25.952;2022-07-23T09:10:10;5.68;;;2.40;;
67065;SDS011;53978;43.846;25.952;2022-07-23T09:12:37;4.10;;;2.50;;
67065;SDS011;53978;43.846;25.952;2022-07-23T09:15:04;3.55;;;2.30;;
67065;SDS011;53978;43.846;25.952;2022-07-23T09:17:36;5.78;;;2.42;;
67065;SDS011;53978;43.846;25.952;2022-07-23T09:22:34;7.00;;;2.50;;
67065;SDS011;53978;43.846;25.952;2022-07-23T09:25:10;7.13;;;2.40;;
67065;SDS011;53978;43.846;25.952;2022-07-23T09:27:58;4.45;;;2.50;;
67065;SDS011;53978;43.846;25.952;2022-07-23T09:30:28;7.93;;;2.85;;
67065;SDS011;53978;43.846;25.952;2022-07-23T09:33:12;8.60;;;3.10;;
67065;SDS011;53978;43.846;25.952;2022-07-23T09:38:13;8.55;;;2.70;;
67065;SDS011;53978;43.846;25.952;2022-07-23T09:40:39;10.43;;;2.90;;
67065;SDS011;53978;43.846;25.952;2022-07-23T09:43:04;5.85;;;2.50;;
67065;SDS011;53978;43.846;25.952;2022-07-23T09:45:30;6.85;;;2.40;;
67065;SDS011;53978;43.846;25.952;2022-07-23T09:48:16;5.72;;;2.50;;
67065;SDS011;53978;43.846;25.952;2022-07-23T09:50:42;5.90;;;2.65;;
67065;SDS011;53978;43.846;25.952;2022-07-23T09:53:08;5.63;;;2.38;;
67065;SDS011;53978;43.846;25.952;2022-07-23T09:55:37;3.72;;;2.35;;
67065;SDS011;53978;43.846;25.952;2022-07-23T09:58:04;5.78;;;2.40;;
67065;SDS011;53978;43.846;25.952;2022-07-23T10:00:34;8.13;;;2.50;;
67065;SDS011;53978;43.846;25.952;2022-07-23T10:03:00;9.48;;;2.78;;
67065;SDS011;53978;43.846;25.952;2022-07-23T10:05:27;10.90;;;2.65;;
67065;SDS011;53978;43.846;25.952;2022-07-23T10:07:54;6.07;;;2.55;;
67065;SDS011;53978;43.846;25.952;2022-07-23T10:10:22;9.52;;;2.50;;
67065;SDS011;53978;43.846;25.952;2022-07-23T10:12:52;7.93;;;2.60;;
67065;SDS011;53978;43.846;25.952;2022-07-23T10:15:44;5.93;;;2.67;;
67065;SDS011;53978;43.846;25.952;2022-07-23T10:18:10;8.73;;;2.75;;
67065;SDS011;53978;43.846;25.952;2022-07-23T10:20:42;6.93;;;2.95;;
67065;SDS011;53978;43.846;25.952;2022-07-23T10:23:15;7.55;;;2.45;;
67065;SDS011;53978;43.846;25.952;2022-07-23T10:25:49;8.65;;;2.30;;
67065;SDS011;53978;43.846;25.952;2022-07-23T10:31:29;4.78;;;2.53;;
67065;SDS011;53978;43.846;25.952;2022-07-23T10:37:10;5.88;;;3.13;;
67065;SDS011;53978;43.846;25.952;2022-07-23T10:40:13;6.95;;;2.53;;
67065;SDS011;53978;43.846;25.952;2022-07-23T10:42:57;9.98;;;2.70;;
67065;SDS011;53978;43.846;25.952;2022-07-23T10:45:33;6.40;;;2.47;;
67065;SDS011;53978;43.846;25.952;2022-07-23T10:51:07;7.60;;;2.58;;
67065;SDS011;53978;43.846;25.952;2022-07-23T10:59:53;5.93;;;2.95;;
67065;SDS011;53978;43.846;25.952;2022-07-23T11:02:30;4.07;;;2.28;;
67065;SDS011;53978;43.846;25.952;2022-07-23T11:04:59;4.60;;;2.70;;
67065;SDS011;53978;43.846;25.952;2022-07-23T11:07:25;4.85;;;2.70;;
67065;SDS011;53978;43.846;25.952;2022-07-23T11:09:54;4.90;;;2.45;;
67065;SDS011;53978;43.846;25.952;2022-07-23T11:15:07;4.30;;;2.65;;
67065;SDS011;53978;43.846;25.952;2022-07-23T11:17:36;4.82;;;2.25;;
67065;SDS011;53978;43.846;25.952;2022-07-23T11:20:22;7.50;;;2.70;;
67065;SDS011;53978;43.846;25.952;2022-07-23T11:22:50;5.28;;;2.65;;
67065;SDS011;53978;43.846;25.952;2022-07-23T11:27:53;3.50;;;2.55;;
67065;SDS011;53978;43.846;25.952;2022-07-23T11:32:52;7.25;;;3.05;;
67065;SDS011;53978;43.846;25.952;2022-07-23T11:35:27;7.05;;;3.08;;
67065;SDS011;53978;43.846;25.952;2022-07-23T11:37:54;4.13;;;2.47;;
67065;SDS011;53978;43.846;25.952;2022-07-23T11:40:33;7.05;;;3.42;;
67065;SDS011;53978;43.846;25.952;2022-07-23T11:43:08;6.43;;;2.53;;
67065;SDS011;53978;43.846;25.952;2022-07-23T11:48:09;11.60;;;3.13;;
67065;SDS011;53978;43.846;25.952;2022-07-23T11:50:41;5.88;;;3.20;;
67065;SDS011;53978;43.846;25.952;2022-07-23T11:53:12;8.55;;;3.03;;
67065;SDS011;53978;43.846;25.952;2022-07-23T11:55:41;3.28;;;2.30;;
67065;SDS011;53978;43.846;25.952;2022-07-23T11:58:06;5.03;;;2.65;;
67065;SDS011;53978;43.846;25.952;2022-07-23T12:00:32;5.60;;;2.72;;
67065;SDS011;53978;43.846;25.952;2022-07-23T12:03:02;7.43;;;2.90;;
67065;SDS011;53978;43.846;25.952;2022-07-23T12:05:32;8.15;;;2.58;;
67065;SDS011;53978;43.846;25.952;2022-07-23T12:08:05;3.65;;;2.33;;
67065;SDS011;53978;43.846;25.952;2022-07-23T12:13:12;5.78;;;2.80;;
67065;SDS011;53978;43.846;25.952;2022-07-23T12:15:49;3.63;;;2.45;;
67065;SDS011;53978;43.846;25.952;2022-07-23T12:18:25;5.25;;;2.72;;
67065;SDS011;53978;43.846;25.952;2022-07-23T12:20:52;4.55;;;2.72;;
67065;SDS011;53978;43.846;25.952;2022-07-23T12:23:27;8.07;;;2.65;;
67065;SDS011;53978;43.846;25.952;2022-07-23T12:25:55;4.82;;;2.80;;
67065;SDS011;53978;43.846;25.952;2022-07-23T12:28:33;3.67;;;2.50;;
67065;SDS011;53978;43.846;25.952;2022-07-23T12:30:58;5.15;;;2.70;;
67065;SDS011;53978;43.846;25.952;2022-07-23T12:33:29;4.50;;;2.50;;
67065;SDS011;53978;43.846;25.952;2022-07-23T12:36:05;5.00;;;2.90;;
67065;SDS011;53978;43.846;25.952;2022-07-23T12:38:37;4.75;;;2.50;;
67065;SDS011;53978;43.846;25.952;2022-07-23T12:41:02;6.70;;;3.00;;
67065;SDS011;53978;43.846;25.952;2022-07-23T12:43:30;5.10;;;2.72;;
67065;SDS011;53978;43.846;25.952;2022-07-23T12:46:14;3.92;;;2.70;;
67065;SDS011;53978;43.846;25.952;2022-07-23T12:51:16;4.55;;;2.80;;
67065;SDS011;53978;43.846;25.952;2022-07-23T12:53:52;3.60;;;2.70;;
67065;SDS011;53978;43.846;25.952;2022-07-23T12:56:20;4.78;;;2.85;;
67065;SDS011;53978;43.846;25.952;2022-07-23T12:58:54;4.05;;;2.47;;
67065;SDS011;53978;43.846;25.952;2022-07-23T13:03:54;8.50;;;2.80;;
67065;SDS011;53978;43.846;25.952;2022-07-23T13:06:24;4.75;;;2.80;;
67065;SDS011;53978;43.846;25.952;2022-07-23T13:08:50;6.30;;;2.75;;
67065;SDS011;53978;43.846;25.952;2022-07-23T13:11:15;3.33;;;2.60;;
67065;SDS011;53978;43.846;25.952;2022-07-23T13:13:41;5.60;;;2.75;;
67065;SDS011;53978;43.846;25.952;2022-07-23T13:16:06;5.03;;;2.58;;
67065;SDS011;53978;43.846;25.952;2022-07-23T13:18:35;4.80;;;2.38;;
67065;SDS011;53978;43.846;25.952;2022-07-23T13:21:01;5.85;;;2.85;;
67065;SDS011;53978;43.846;25.952;2022-07-23T13:23:27;4.18;;;2.70;;
67065;SDS011;53978;43.846;25.952;2022-07-23T13:25:53;3.67;;;2.40;;
67065;SDS011;53978;43.846;25.952;2022-07-23T13:28:20;7.47;;;3.47;;
67065;SDS011;53978;43.846;25.952;2022-07-23T13:30:46;4.72;;;2.90;;
67065;SDS011;53978;43.846;25.952;2022-07-23T13:33:14;7.97;;;2.75;;
67065;SDS011;53978;43.846;25.952;2022-07-23T13:35:41;7.68;;;2.60;;
67065;SDS011;53978;43.846;25.952;2022-07-23T13:38:07;3.20;;;2.63;;
67065;SDS011;53978;43.846;25.952;2022-07-23T13:40:33;6.50;;;2.90;;
67065;SDS011;53978;43.846;25.952;2022-07-23T13:43:01;8.05;;;3.10;;
67065;SDS011;53978;43.846;25.952;2022-07-23T13:45:27;9.70;;;2.90;;
67065;SDS011;53978;43.846;25.952;2022-07-23T13:47:52;8.15;;;2.97;;
67065;SDS011;53978;43.846;25.952;2022-07-23T13:50:18;7.78;;;3.30;;
67065;SDS011;53978;43.846;25.952;2022-07-23T13:52:43;5.30;;;2.90;;
67065;SDS011;53978;43.846;25.952;2022-07-23T13:55:10;9.48;;;3.05;;
67065;SDS011;53978;43.846;25.952;2022-07-23T13:57:35;9.82;;;3.20;;
67065;SDS011;53978;43.846;25.952;2022-07-23T14:00:02;9.13;;;3.00;;
67065;SDS011;53978;43.846;25.952;2022-07-23T14:02:29;6.00;;;3.30;;
67065;SDS011;53978;43.846;25.952;2022-07-23T14:04:54;4.28;;;2.92;;
67065;SDS011;53978;43.846;25.952;2022-07-23T14:07:20;4.78;;;2.72;;
67065;SDS011;53978;43.846;25.952;2022-07-23T14:09:45;9.00;;;3.17;;
67065;SDS011;53978;43.846;25.952;2022-07-23T14:12:14;6.50;;;3.10;;
67065;SDS011;53978;43.846;25.952;2022-07-23T14:14:39;5.15;;;2.65;;
67065;SDS011;53978;43.846;25.952;2022-07-23T14:17:23;10.05;;;3.20;;
67065;SDS011;53978;43.846;25.952;2022-07-23T14:19:48;10.10;;;3.10;;
67065;SDS011;53978;43.846;25.952;2022-07-23T14:22:14;3.60;;;2.58;;
67065;SDS011;53978;43.846;25.952;2022-07-23T14:24:39;4.22;;;2.90;;
67065;SDS011;53978;43.846;25.952;2022-07-23T14:27:07;8.02;;;3.42;;
67065;SDS011;53978;43.846;25.952;2022-07-23T14:29:33;6.10;;;3.00;;
67065;SDS011;53978;43.846;25.952;2022-07-23T14:31:59;6.90;;;2.63;;
67065;SDS011;53978;43.846;25.952;2022-07-23T14:34:32;4.78;;;2.63;;
67065;SDS011;53978;43.846;25.952;2022-07-23T14:39:23;10.30;;;3.20;;
67065;SDS011;53978;43.846;25.952;2022-07-23T14:41:48;6.70;;;2.70;;
67065;SDS011;53978;43.846;25.952;2022-07-23T14:44:14;5.93;;;2.67;;
67065;SDS011;53978;43.846;25.952;2022-07-23T14:46:41;6.90;;;2.85;;
67065;SDS011;53978;43.846;25.952;2022-07-23T14:49:10;3.78;;;2.63;;
67065;SDS011;53978;43.846;25.952;2022-07-23T14:51:35;7.47;;;2.92;;
67065;SDS011;53978;43.846;25.952;2022-07-23T14:54:02;7.15;;;2.75;;
67065;SDS011;53978;43.846;25.952;2022-07-23T14:56:28;5.13;;;2.58;;
67065;SDS011;53978;43.846;25.952;2022-07-23T14:58:56;4.70;;;2.50;;
67065;SDS011;53978;43.846;25.952;2022-07-23T15:01:22;5.68;;;2.60;;
67065;SDS011;53978;43.846;25.952;2022-07-23T15:04:05;4.95;;;2.63;;
67065;SDS011;53978;43.846;25.952;2022-07-23T15:06:31;5.13;;;2.90;;
67065;SDS011;53978;43.846;25.952;2022-07-23T15:08:57;5.80;;;2.80;;
67065;SDS011;53978;43.846;25.952;2022-07-23T15:11:26;5.05;;;2.80;;
67065;SDS011;53978;43.846;25.952;2022-07-23T15:13:58;7.25;;;3.33;;
67065;SDS011;53978;43.846;25.952;2022-07-23T15:16:25;8.23;;;2.88;;